Terminal Aerodrome Forecast
Issued by NWS Austin/San Antonio, TX

Home | Current Version | Previous Version | Text Only | Print | Product List | Glossary On
Versions: 1 2 3 4 5 6 7 8 9 10 11 12 13 14 15 16 17
000
FTUS44 KEWX 062320
TAFSAT
TAF
KSAT 062320Z 0700/0806 14012KT P6SM SCT035 BKN070
     FM070300 16011KT P6SM BKN011 OVC030
     FM070700 14010KT 5SM BR BKN007 OVC025
     FM071800 16012KT P6SM VCSH BKN022 OVC030
     FM072100 15014KT P6SM BKN035
     FM080300 14014KT P6SM OVC015=

USA.gov is the U.S. government's official web portal to all federal, state and local government web resources and services.